Time;durP1;ratioP1;P1;durP2;ratioP2;P2;SDS_P1;SDS_P2;PMS_P1;PMS_P2;Temp;Humidity;BMP_temperature;BMP_pressure;BME280_temperature;BME280_humidity;BME280_pressure;Samples;Min_cycle;Max_cycle;Signal;HPM_P1;HPM_P2
2022/04/07 00:00:43;;;;;;;0.80;0.80;;;16.40;58.40;;;;;;5055386;28;20176;-91
2022/04/07 00:03:09;;;;;;;1.17;0.90;;;16.50;58.30;;;;;;5055467;28;20275;-93
2022/04/07 00:05:34;;;;;;;1.80;1.00;;;16.40;58.20;;;;;;5005007;28;20541;-91
2022/04/07 00:08:00;;;;;;;0.70;0.70;;;16.50;58.30;;;;;;5053933;28;20183;-91
2022/04/07 00:10:26;;;;;;;1.10;0.90;;;16.50;58.30;;;;;;5055312;28;20185;-91
2022/04/07 00:12:52;;;;;;;0.97;0.90;;;16.50;58.30;;;;;;5054792;28;20516;-91
2022/04/07 00:15:17;;;;;;;0.90;0.70;;;16.50;58.30;;;;;;5054360;28;20187;-91
2022/04/07 00:17:43;;;;;;;1.30;0.90;;;16.50;58.40;;;;;;5055773;28;20573;-92
2022/04/07 00:20:09;;;;;;;0.93;0.93;;;16.50;58.40;;;;;;5054632;28;20249;-92
2022/04/07 00:22:35;;;;;;;0.80;0.80;;;16.50;58.40;;;;;;5055147;28;20188;-93
2022/04/07 00:25:02;;;;;;;0.97;0.83;;;16.50;58.40;;;;;;5055513;28;20178;-91
2022/04/07 00:27:28;;;;;;;0.93;0.80;;;16.50;58.40;;;;;;5054812;28;20185;-91
2022/04/07 00:29:53;;;;;;;1.10;1.00;;;16.40;58.40;;;;;;5055817;28;20333;-92
2022/04/07 00:32:19;;;;;;;0.73;0.70;;;16.40;58.50;;;;;;5056385;28;20180;-93
2022/04/07 00:34:46;;;;;;;1.07;0.80;;;16.40;58.50;;;;;;5055504;28;20185;-93
2022/04/07 00:37:13;;;;;;;1.13;0.80;;;16.40;58.60;;;;;;5055958;28;20275;-93
2022/04/07 00:39:39;;;;;;;2.10;0.80;;;16.40;58.70;;;;;;5056538;28;20191;-93
2022/04/07 00:42:05;;;;;;;0.83;0.83;;;16.40;58.60;;;;;;5055431;28;20616;-93
2022/04/07 00:44:31;;;;;;;0.80;0.80;;;16.40;58.60;;;;;;5055729;28;20177;-94
2022/04/07 00:46:57;;;;;;;1.17;0.80;;;16.40;58.60;;;;;;5054418;28;20168;-93
2022/04/07 00:49:23;;;;;;;0.73;0.73;;;16.40;58.70;;;;;;5054405;28;20466;-93
2022/04/07 00:51:53;;;;;;;1.27;0.90;;;16.40;58.70;;;;;;5054515;28;20183;-95
2022/04/07 00:54:19;;;;;;;0.70;0.70;;;16.40;58.70;;;;;;5055192;28;20176;-93
2022/04/07 00:56:46;;;;;;;0.60;0.60;;;16.40;58.70;;;;;;5055838;28;20223;-93
2022/04/07 00:59:17;;;;;;;1.30;0.90;;;16.40;58.70;;;;;;5055754;28;20178;-93
2022/04/07 01:01:44;;;;;;;0.70;0.70;;;16.40;58.70;;;;;;5056466;28;20185;-93
2022/04/07 01:04:09;;;;;;;1.40;0.60;;;16.40;58.80;;;;;;5055156;28;20184;-94
2022/04/07 01:06:35;;;;;;;0.77;0.50;;;16.40;58.90;;;;;;5054845;28;20475;-93
2022/04/07 01:09:01;;;;;;;1.23;0.70;;;16.30;58.90;;;;;;5054563;28;20460;-93
2022/04/07 01:11:31;;;;;;;1.23;0.80;;;16.30;58.90;;;;;;5054750;28;20177;-94
2022/04/07 01:13:57;;;;;;;1.30;0.80;;;16.30;58.90;;;;;;5055544;28;20180;-93
2022/04/07 01:16:26;;;;;;;0.80;0.60;;;16.30;58.90;;;;;;5055269;28;20463;-93
2022/04/07 01:18:52;;;;;;;0.83;0.70;;;16.30;58.90;;;;;;5056159;28;20284;-94
2022/04/07 01:21:20;;;;;;;1.07;0.80;;;16.30;59.00;;;;;;5055356;28;20241;-93
2022/04/07 01:24:05;;;;;;;1.00;0.87;;;16.30;59.00;;;;;;5055071;28;20181;-94
2022/04/07 01:26:39;;;;;;;1.23;0.73;;;16.30;59.00;;;;;;5054222;28;20178;-93
2022/04/07 01:29:16;;;;;;;0.97;0.80;;;16.30;59.00;;;;;;5054928;28;20187;-93
2022/04/07 01:31:42;;;;;;;0.90;0.63;;;16.30;59.00;;;;;;5054711;28;20173;-94
2022/04/07 01:34:16;;;;;;;0.80;0.70;;;16.20;59.00;;;;;;5054994;28;20180;-93
2022/04/07 01:36:46;;;;;;;1.07;0.67;;;16.20;59.00;;;;;;5055677;28;20208;-93
2022/04/07 01:39:13;;;;;;;0.77;0.67;;;16.20;59.00;;;;;;5056433;28;20534;-94
2022/04/07 01:41:40;;;;;;;0.90;0.70;;;16.20;59.00;;;;;;5056256;28;20176;-94
2022/04/07 01:44:07;;;;;;;0.60;0.60;;;16.20;59.10;;;;;;5054527;28;20172;-92
2022/04/07 01:46:34;;;;;;;1.03;0.80;;;16.20;59.10;;;;;;5055858;28;20180;-93
2022/04/07 01:49:01;;;;;;;1.07;0.77;;;16.20;59.10;;;;;;5055548;28;20280;-93
2022/04/07 01:51:28;;;;;;;1.40;0.77;;;16.20;59.10;;;;;;5056516;28;20172;-93
2022/04/07 01:53:55;;;;;;;0.70;0.70;;;16.20;59.10;;;;;;5055691;28;20463;-93
2022/04/07 01:56:22;;;;;;;0.97;0.73;;;16.20;59.10;;;;;;5055035;28;20180;-94
2022/04/07 01:58:48;;;;;;;0.80;0.70;;;16.20;59.10;;;;;;5055503;28;20180;-93
2022/04/07 02:01:17;;;;;;;0.90;0.80;;;16.20;59.10;;;;;;5055503;28;20237;-93
2022/04/07 02:03:45;;;;;;;1.07;0.70;;;16.20;59.10;;;;;;5056453;28;20208;-94
2022/04/07 02:06:19;;;;;;;1.37;0.73;;;16.20;59.10;;;;;;5054122;28;20270;-93
2022/04/07 02:08:45;;;;;;;0.70;0.70;;;16.20;59.10;;;;;;5055827;28;20173;-94
2022/04/07 02:11:12;;;;;;;1.33;0.77;;;16.20;59.10;;;;;;5055360;28;20591;-94
2022/04/07 02:13:39;;;;;;;1.53;0.83;;;16.20;59.10;;;;;;5058286;28;20184;-93
2022/04/07 02:16:09;;;;;;;0.73;0.70;;;16.20;59.10;;;;;;5054567;28;20177;-93
2022/04/07 02:18:36;;;;;;;1.60;0.80;;;16.20;59.10;;;;;;5055199;28;20663;-93
2022/04/07 02:21:02;;;;;;;1.53;0.67;;;16.20;59.10;;;;;;5054817;28;20169;-93
2022/04/07 02:23:29;;;;;;;0.70;0.67;;;16.20;59.10;;;;;;5055358;28;20165;-93
2022/04/07 02:25:54;;;;;;;0.60;0.60;;;16.20;59.10;;;;;;5056010;28;20173;-93
2022/04/07 02:28:21;;;;;;;1.90;0.87;;;16.20;59.10;;;;;;5055554;28;20181;-94
2022/04/07 02:30:47;;;;;;;0.73;0.60;;;16.20;59.10;;;;;;5055930;28;20173;-94
2022/04/07 02:33:14;;;;;;;1.47;0.80;;;16.20;59.10;;;;;;5055068;28;20218;-94
2022/04/07 02:35:40;;;;;;;1.00;0.80;;;16.10;59.00;;;;;;5054452;28;20177;-93
2022/04/07 02:38:06;;;;;;;0.60;0.60;;;16.20;59.10;;;;;;5054282;28;20291;-93
2022/04/07 02:40:32;;;;;;;0.60;0.60;;;16.10;59.10;;;;;;5054482;28;20262;-93
2022/04/07 02:42:58;;;;;;;0.60;0.60;;;16.10;59.10;;;;;;5054893;28;20427;-93
2022/04/07 02:45:24;;;;;;;0.87;0.70;;;16.10;59.20;;;;;;5055652;28;20558;-92
2022/04/07 02:47:50;;;;;;;1.07;0.80;;;16.10;59.20;;;;;;5058190;28;20172;-93
2022/04/07 02:50:18;;;;;;;2.23;0.60;;;16.10;59.20;;;;;;5060114;28;20571;-94
2022/04/07 02:52:45;;;;;;;0.87;0.70;;;16.10;59.30;;;;;;5060028;28;20172;-93
2022/04/07 02:55:11;;;;;;;0.70;0.70;;;16.10;59.30;;;;;;5059217;28;20238;-92
2022/04/07 02:57:37;;;;;;;0.73;0.60;;;16.00;59.40;;;;;;5059706;28;20303;-93
2022/04/07 03:00:07;;;;;;;0.97;0.80;;;16.00;59.50;;;;;;5059350;28;20223;-92
2022/04/07 03:02:33;;;;;;;2.33;0.80;;;16.00;59.40;;;;;;5058575;28;20206;-93
2022/04/07 03:04:58;;;;;;;1.00;0.70;;;16.00;59.40;;;;;;5058451;28;20173;-92
2022/04/07 03:07:24;;;;;;;0.90;0.70;;;16.10;59.30;;;;;;5059343;28;20234;-91
2022/04/07 03:09:50;;;;;;;0.77;0.73;;;16.20;59.20;;;;;;5058128;28;20172;-92
2022/04/07 03:12:17;;;;;;;1.33;0.60;;;16.50;58.40;;;;;;5059689;28;20271;-92
2022/04/07 03:14:43;;;;;;;0.90;0.50;;;16.90;57.10;;;;;;5059544;28;20253;-93
2022/04/07 03:17:09;;;;;;;0.87;0.70;;;17.40;55.50;;;;;;5058507;28;20307;-93
2022/04/07 03:19:35;;;;;;;0.50;0.50;;;18.10;53.90;;;;;;5058121;28;20191;-90
2022/04/07 03:22:01;;;;;;;0.97;0.60;;;18.60;52.40;;;;;;5059488;28;20180;-93
2022/04/07 03:24:28;;;;;;;0.70;0.63;;;19.20;51.10;;;;;;5057794;28;20168;-93
2022/04/07 03:26:54;;;;;;;0.60;0.50;;;19.60;50.20;;;;;;5058997;28;20189;-92
2022/04/07 03:29:21;;;;;;;0.80;0.80;;;19.70;49.70;;;;;;5058060;28;20178;-92
2022/04/07 03:31:50;;;;;;;0.63;0.57;;;19.80;49.40;;;;;;5058408;28;20179;-92
2022/04/07 03:34:17;;;;;;;0.60;0.60;;;19.70;49.30;;;;;;5057898;28;20580;-93
2022/04/07 03:36:47;;;;;;;0.90;0.70;;;19.50;49.90;;;;;;5058954;28;20209;-94
2022/04/07 03:39:13;;;;;;;1.00;0.70;;;19.40;49.60;;;;;;5059412;28;20202;-92
2022/04/07 03:41:39;;;;;;;0.57;0.57;;;19.30;49.90;;;;;;5058524;28;20199;-93
2022/04/07 03:44:09;;;;;;;0.80;0.80;;;19.20;50.50;;;;;;5058579;28;20573;-93
2022/04/07 03:46:36;;;;;;;0.80;0.50;;;19.00;50.30;;;;;;5058820;28;20184;-92
2022/04/07 03:49:03;;;;;;;0.50;0.50;;;18.90;50.60;;;;;;5058995;28;20185;-92
2022/04/07 03:51:29;;;;;;;0.70;0.70;;;18.60;51.00;;;;;;5056814;28;20645;-92
2022/04/07 03:53:55;;;;;;;0.80;0.60;;;18.40;52.00;;;;;;5055735;28;20176;-92
2022/04/07 03:56:21;;;;;;;0.73;0.73;;;18.10;52.10;;;;;;5055961;28;20176;-92
2022/04/07 03:58:47;;;;;;;0.40;0.40;;;17.90;52.60;;;;;;5055052;28;20169;-92
2022/04/07 04:01:13;;;;;;;1.10;0.60;;;17.80;53.10;;;;;;5055209;28;20176;-92
2022/04/07 04:03:39;;;;;;;0.70;0.70;;;17.60;53.60;;;;;;5055252;28;20210;-93
2022/04/07 04:06:05;;;;;;;0.70;0.70;;;17.40;54.20;;;;;;5055429;28;20195;-92
2022/04/07 04:08:31;;;;;;;1.17;0.80;;;17.30;54.60;;;;;;5055354;28;20178;-93
2022/04/07 04:10:57;;;;;;;1.10;0.77;;;17.20;55.10;;;;;;5055354;28;20209;-93
2022/04/07 04:13:23;;;;;;;0.60;0.60;;;17.00;55.40;;;;;;5055642;28;20557;-92
2022/04/07 04:15:48;;;;;;;1.40;0.53;;;16.90;55.80;;;;;;5055210;28;20180;-92
2022/04/07 04:18:14;;;;;;;0.67;0.67;;;16.90;56.20;;;;;;5054558;28;20214;-92
2022/04/07 04:20:40;;;;;;;1.17;0.87;;;16.80;56.40;;;;;;5054666;28;20194;-92
2022/04/07 04:23:06;;;;;;;0.80;0.67;;;16.80;56.60;;;;;;5055570;28;20170;-92
2022/04/07 04:25:32;;;;;;;0.97;0.70;;;16.70;56.70;;;;;;5054549;28;20296;-93
2022/04/07 04:27:58;;;;;;;0.63;0.60;;;16.70;57.00;;;;;;5056243;28;20178;-92
2022/04/07 04:30:25;;;;;;;1.30;0.70;;;16.60;57.10;;;;;;5055755;28;20168;-94
2022/04/07 04:32:51;;;;;;;0.70;0.70;;;16.60;57.20;;;;;;5055943;28;20174;-93
2022/04/07 04:35:16;;;;;;;1.37;0.60;;;16.60;57.40;;;;;;5055164;28;20174;-94
2022/04/07 04:37:42;;;;;;;0.83;0.70;;;16.50;57.50;;;;;;5056886;28;20218;-93
2022/04/07 04:40:08;;;;;;;0.60;0.60;;;16.50;57.60;;;;;;5056509;28;20624;-93
2022/04/07 04:42:34;;;;;;;1.13;0.80;;;16.40;57.60;;;;;;5055611;28;20194;-93
2022/04/07 04:45:00;;;;;;;1.27;0.80;;;16.40;57.70;;;;;;5054997;28;20169;-94
2022/04/07 04:47:26;;;;;;;1.27;0.87;;;16.40;57.80;;;;;;5054591;28;20560;-93
2022/04/07 04:49:51;;;;;;;1.33;0.50;;;16.40;57.80;;;;;;5055527;28;20177;-93
2022/04/07 04:52:17;;;;;;;0.77;0.60;;;16.40;57.90;;;;;;5052836;28;20261;-93
2022/04/07 04:54:42;;;;;;;1.23;0.60;;;16.40;58.00;;;;;;5053865;28;20173;-92
2022/04/07 04:57:08;;;;;;;0.90;0.60;;;16.40;58.00;;;;;;5052287;28;20218;-92
2022/04/07 04:59:34;;;;;;;1.17;0.60;;;16.50;57.80;;;;;;5051083;28;20271;-92
2022/04/07 05:02:00;;;;;;;0.70;0.70;;;16.60;57.40;;;;;;5055345;28;20166;-93
2022/04/07 05:04:26;;;;;;;1.97;1.00;;;16.90;56.90;;;;;;5053208;28;20174;-93
2022/04/07 05:06:52;;;;;;;1.60;0.70;;;17.10;56.10;;;;;;5052989;28;20183;-92
2022/04/07 05:09:18;;;;;;;0.77;0.70;;;17.50;55.20;;;;;;5051404;28;20494;-94
2022/04/07 05:11:44;;;;;;;1.63;0.73;;;17.60;54.40;;;;;;5051935;28;20240;-92
2022/04/07 05:14:09;;;;;;;2.10;0.80;;;17.70;54.00;;;;;;5051755;28;20178;-91
2022/04/07 05:16:36;;;;;;;0.70;0.70;;;17.70;53.90;;;;;;5049766;28;20693;-92
2022/04/07 05:19:01;;;;;;;0.70;0.70;;;17.80;54.20;;;;;;5050379;28;20438;-92
2022/04/07 05:21:27;;;;;;;0.83;0.70;;;17.80;53.70;;;;;;5050830;28;20179;-92
2022/04/07 05:23:53;;;;;;;1.80;0.80;;;17.70;53.70;;;;;;5049927;28;20277;-91
2022/04/07 05:26:19;;;;;;;1.33;0.83;;;17.70;53.80;;;;;;5050528;28;20278;-91
2022/04/07 05:28:44;;;;;;;0.63;0.60;;;17.70;53.90;;;;;;5050353;28;20252;-90
2022/04/07 05:31:11;;;;;;;1.23;0.67;;;17.70;54.00;;;;;;5049325;28;20178;-90
2022/04/07 05:33:37;;;;;;;0.80;0.60;;;17.60;54.10;;;;;;5049186;28;20176;-90
2022/04/07 05:36:03;;;;;;;1.27;0.70;;;17.50;54.40;;;;;;5049478;28;20464;-90
2022/04/07 05:38:29;;;;;;;1.17;0.70;;;17.40;54.60;;;;;;5048740;28;20315;-91
2022/04/07 05:40:55;;;;;;;1.63;0.73;;;17.40;54.70;;;;;;5048515;28;20204;-90
2022/04/07 05:43:21;;;;;;;0.83;0.60;;;17.40;55.00;;;;;;5050321;28;20376;-91
2022/04/07 05:45:49;;;;;;;1.13;0.80;;;17.30;55.20;;;;;;5046859;28;20173;-92
2022/04/07 05:48:15;;;;;;;0.70;0.70;;;17.20;55.50;;;;;;5048680;28;20547;-90
2022/04/07 05:50:40;;;;;;;0.67;0.67;;;17.10;55.70;;;;;;5047157;28;20476;-90
2022/04/07 05:53:07;;;;;;;0.70;0.70;;;17.00;56.00;;;;;;5048978;28;20597;-91
2022/04/07 05:55:36;;;;;;;1.40;0.60;;;17.00;56.10;;;;;;5049153;28;20183;-90
2022/04/07 05:58:07;;;;;;;0.60;0.50;;;16.90;56.30;;;;;;5047585;28;20223;-91
2022/04/07 06:00:34;;;;;;;0.70;0.60;;;16.90;56.60;;;;;;5045994;28;20180;-92
2022/04/07 06:03:00;;;;;;;1.83;0.80;;;16.90;56.70;;;;;;5047009;28;20277;-91
2022/04/07 06:05:26;;;;;;;1.10;0.70;;;16.90;56.80;;;;;;5046910;28;20169;-91
2022/04/07 06:08:00;;;;;;;1.67;1.00;;;16.80;57.00;;;;;;5048174;28;20266;-91
2022/04/07 06:10:27;;;;;;;2.07;0.70;;;16.70;57.20;;;;;;5050808;28;20178;-92
2022/04/07 06:12:53;;;;;;;2.70;0.70;;;16.60;57.60;;;;;;5049136;28;20186;-91
2022/04/07 06:15:19;;;;;;;1.17;0.70;;;16.60;57.60;;;;;;5048669;28;20182;-91
2022/04/07 06:17:45;;;;;;;1.10;0.80;;;16.50;57.80;;;;;;5048373;28;20458;-91
2022/04/07 06:20:12;;;;;;;0.50;0.50;;;16.50;58.00;;;;;;5048215;28;20254;-92
2022/04/07 06:22:39;;;;;;;2.07;0.60;;;16.50;58.00;;;;;;5047489;28;20272;-91
2022/04/07 06:25:06;;;;;;;2.37;0.70;;;16.40;58.10;;;;;;5047856;28;20186;-92
2022/04/07 06:27:39;;;;;;;0.80;0.70;;;16.40;58.20;;;;;;5046789;28;20243;-92
2022/04/07 06:30:09;;;;;;;0.60;0.60;;;16.40;58.40;;;;;;5046544;28;20277;-91
2022/04/07 06:32:35;;;;;;;0.77;0.63;;;16.30;58.50;;;;;;5047716;28;20254;-92
2022/04/07 06:35:01;;;;;;;0.67;0.67;;;16.30;58.60;;;;;;5046572;28;20579;-90
2022/04/07 06:37:27;;;;;;;0.50;0.50;;;16.30;58.80;;;;;;5046297;28;20236;-90
2022/04/07 06:40:03;;;;;;;0.93;0.80;;;16.30;59.00;;;;;;5046993;28;20175;-90
2022/04/07 06:42:29;;;;;;;0.80;0.70;;;16.30;59.10;;;;;;5048318;28;20177;-90
2022/04/07 06:44:56;;;;;;;0.53;0.53;;;16.30;59.20;;;;;;5047821;28;20253;-90
2022/04/07 06:47:22;;;;;;;1.50;0.63;;;16.40;59.20;;;;;;5047260;28;20329;-90
2022/04/07 06:49:51;;;;;;;4.47;0.80;;;16.50;59.00;;;;;;5048837;28;20251;-89
2022/04/07 06:52:20;;;;;;;2.50;0.80;;;16.90;58.70;;;;;;5048216;28;20242;-91
2022/04/07 06:54:46;;;;;;;0.87;0.70;;;17.30;58.00;;;;;;5048302;28;20245;-90
2022/04/07 06:57:11;;;;;;;2.33;0.90;;;17.60;57.10;;;;;;5046858;28;20202;-90
2022/04/07 06:59:37;;;;;;;2.43;0.80;;;17.90;56.20;;;;;;5047529;28;20185;-90
2022/04/07 07:02:03;;;;;;;2.47;0.90;;;18.40;54.80;;;;;;5047270;28;20171;-90
2022/04/07 07:04:32;;;;;;;4.07;0.87;;;18.80;53.50;;;;;;5047211;28;20174;-90
2022/04/07 07:06:58;;;;;;;1.10;0.70;;;18.70;53.50;;;;;;5048059;28;20281;-90
2022/04/07 07:09:25;;;;;;;2.77;0.77;;;18.50;54.10;;;;;;5048547;28;20351;-93
2022/04/07 07:11:51;;;;;;;4.87;0.80;;;18.20;54.90;;;;;;5049543;28;20428;-93
2022/04/07 07:14:17;;;;;;;4.03;0.80;;;18.00;55.80;;;;;;5050551;28;20183;-92
2022/04/07 07:16:43;;;;;;;2.07;0.80;;;17.80;56.50;;;;;;5049479;28;20186;-93
2022/04/07 07:19:10;;;;;;;3.67;0.73;;;17.60;57.40;;;;;;5049972;28;20190;-93
2022/04/07 07:21:36;;;;;;;1.83;0.80;;;17.50;58.20;;;;;;5049993;28;20172;-93
2022/04/07 07:24:02;;;;;;;2.70;0.90;;;17.40;58.90;;;;;;5051440;28;20601;-92
2022/04/07 07:26:28;;;;;;;1.07;0.87;;;17.30;59.40;;;;;;5051273;28;20628;-93
2022/04/07 07:28:54;;;;;;;1.10;0.80;;;17.20;59.70;;;;;;5048641;28;20345;-93
2022/04/07 07:31:19;;;;;;;1.90;0.70;;;17.10;60.00;;;;;;5049505;28;20233;-93
2022/04/07 07:33:45;;;;;;;2.10;0.80;;;17.10;60.30;;;;;;5052485;28;20169;-94
2022/04/07 07:36:11;;;;;;;2.10;0.90;;;17.00;60.60;;;;;;5053919;28;20183;-93
2022/04/07 07:38:36;;;;;;;1.20;0.80;;;16.90;61.30;;;;;;5052383;28;20204;-94
2022/04/07 07:41:02;;;;;;;0.67;0.67;;;16.90;61.40;;;;;;5053144;28;20266;-93
2022/04/07 07:43:28;;;;;;;0.87;0.70;;;16.90;61.90;;;;;;5055752;28;20177;-92
2022/04/07 07:45:54;;;;;;;1.23;0.80;;;16.80;62.10;;;;;;5051237;28;20270;-92
2022/04/07 07:48:27;;;;;;;0.97;0.70;;;16.80;62.30;;;;;;5050917;28;20240;-93
2022/04/07 07:50:54;;;;;;;2.00;0.83;;;16.70;62.60;;;;;;5049782;28;20178;-93
2022/04/07 07:53:20;;;;;;;3.17;0.80;;;16.70;62.60;;;;;;5051539;28;20186;-93
2022/04/07 07:55:46;;;;;;;0.90;0.90;;;16.70;63.00;;;;;;5051951;28;20310;-91
2022/04/07 07:58:12;;;;;;;1.90;0.83;;;16.70;63.40;;;;;;5050772;28;20202;-92
2022/04/07 08:00:38;;;;;;;2.10;0.80;;;16.60;63.70;;;;;;5050970;28;20162;-92
2022/04/07 08:03:04;;;;;;;1.10;0.90;;;16.60;64.00;;;;;;5050918;28;20177;-92
2022/04/07 08:05:30;;;;;;;1.23;1.00;;;16.60;64.40;;;;;;5051250;28;20160;-93
2022/04/07 08:07:56;;;;;;;2.43;0.83;;;16.60;64.30;;;;;;5050531;28;20400;-92
2022/04/07 08:10:22;;;;;;;1.00;0.70;;;16.60;64.60;;;;;;5050572;28;20292;-92
2022/04/07 08:12:48;;;;;;;1.50;0.90;;;16.60;65.40;;;;;;5048966;28;20619;-90
2022/04/07 08:15:13;;;;;;;1.50;1.00;;;16.60;65.80;;;;;;5051433;28;20164;-89
2022/04/07 08:17:39;;;;;;;1.60;1.00;;;16.60;66.70;;;;;;5049924;28;20772;-91
2022/04/07 08:20:07;;;;;;;1.23;0.77;;;16.60;67.10;;;;;;5050919;28;20189;-91
2022/04/07 08:22:33;;;;;;;1.63;0.70;;;16.60;66.60;;;;;;5050075;28;20238;-91
2022/04/07 08:24:59;;;;;;;1.53;0.90;;;16.60;65.90;;;;;;5050375;28;20172;-90
2022/04/07 08:27:25;;;;;;;1.00;0.60;;;16.60;65.90;;;;;;5048713;28;20173;-90
2022/04/07 08:29:52;;;;;;;0.97;0.77;;;16.60;65.60;;;;;;5050405;28;20638;-91
2022/04/07 08:32:17;;;;;;;1.47;0.73;;;16.60;65.70;;;;;;5049635;28;20231;-90
2022/04/07 08:34:43;;;;;;;9.30;1.33;;;16.60;65.40;;;;;;5050315;28;20215;-89
2022/04/07 08:37:09;;;;;;;1.53;0.80;;;16.60;65.30;;;;;;5049485;28;20371;-90
2022/04/07 08:39:35;;;;;;;1.80;0.90;;;16.70;64.80;;;;;;5050781;28;20167;-92
2022/04/07 08:42:04;;;;;;;1.60;0.90;;;16.80;64.30;;;;;;5049515;28;20288;-90
2022/04/07 08:44:33;;;;;;;1.07;0.93;;;17.00;63.50;;;;;;5051369;28;20299;-91
2022/04/07 08:47:00;;;;;;;1.20;0.73;;;17.10;62.60;;;;;;5049948;28;20237;-91
2022/04/07 08:49:29;;;;;;;1.40;0.90;;;17.10;62.00;;;;;;5050332;28;20572;-92
2022/04/07 08:51:55;;;;;;;0.97;0.70;;;17.20;61.40;;;;;;5051413;28;20499;-92
2022/04/07 08:54:22;;;;;;;1.00;0.67;;;17.30;60.70;;;;;;5053057;28;20514;-94
2022/04/07 08:56:48;;;;;;;2.47;0.80;;;17.40;60.20;;;;;;5051781;28;20174;-93
2022/04/07 08:59:15;;;;;;;1.40;0.73;;;17.50;59.80;;;;;;5052039;28;20218;-92
2022/04/07 09:01:41;;;;;;;0.87;0.60;;;17.50;59.70;;;;;;5049824;28;20265;-92
2022/04/07 09:04:06;;;;;;;0.40;0.40;;;17.50;60.20;;;;;;5050339;28;20249;-94
2022/04/07 09:06:38;;;;;;;2.20;0.70;;;17.50;60.30;;;;;;5049081;28;20616;-92
2022/04/07 09:09:16;;;;;;;1.47;0.80;;;17.40;60.60;;;;;;5050991;28;20189;-92
2022/04/07 09:11:42;;;;;;;1.53;0.90;;;17.30;61.20;;;;;;5048248;28;20275;-93
2022/04/07 09:14:10;;;;;;;1.13;0.80;;;17.20;61.60;;;;;;5048584;28;20403;-92
2022/04/07 09:16:38;;;;;;;1.37;0.80;;;17.20;62.10;;;;;;5049573;28;20593;-92
2022/04/07 09:19:04;;;;;;;3.97;0.83;;;17.10;62.50;;;;;;5048620;28;20290;-93
2022/04/07 09:21:34;;;;;;;1.03;0.73;;;17.10;62.70;;;;;;5049055;28;20174;-89
2022/04/07 09:24:02;;;;;;;0.87;0.67;;;17.00;63.00;;;;;;5050225;28;20199;-92
2022/04/07 09:26:29;;;;;;;0.80;0.70;;;16.90;63.30;;;;;;5049529;28;20261;-91
2022/04/07 09:28:55;;;;;;;0.67;0.50;;;16.90;63.50;;;;;;5048039;28;20174;-93
2022/04/07 09:31:22;;;;;;;1.50;0.60;;;16.90;63.50;;;;;;5048706;28;20442;-92
2022/04/07 09:33:55;;;;;;;1.37;0.70;;;16.90;63.50;;;;;;5048664;28;20174;-92
2022/04/07 09:36:22;;;;;;;2.03;0.80;;;16.90;63.80;;;;;;5048230;28;20210;-91
2022/04/07 09:38:54;;;;;;;1.17;0.83;;;16.90;64.00;;;;;;5031785;28;20403;-92
2022/04/07 09:41:21;;;;;;;0.63;0.60;;;16.90;64.20;;;;;;5052460;28;20180;-94
2022/04/07 09:43:58;;;;;;;1.70;0.60;;;16.80;64.30;;;;;;5065679;28;20213;-93
2022/04/07 09:46:35;;;;;;;1.33;0.60;;;16.80;64.70;;;;;;5049195;28;20173;-92
2022/04/07 09:49:05;;;;;;;0.80;0.60;;;16.70;64.90;;;;;;5049571;28;20180;-93
2022/04/07 09:51:48;;;;;;;1.00;0.60;;;16.70;65.20;;;;;;5048310;28;20170;-92
2022/04/07 09:54:16;;;;;;;2.77;0.70;;;16.60;65.40;;;;;;5048968;28;20303;-93
2022/04/07 09:56:46;;;;;;;1.83;0.60;;;16.60;65.50;;;;;;5048740;28;20184;-93
2022/04/07 09:59:16;;;;;;;1.63;0.60;;;16.60;65.80;;;;;;5049706;28;20677;-93
2022/04/07 10:01:43;;;;;;;0.83;0.73;;;16.60;66.00;;;;;;5048306;28;20267;-93
2022/04/07 10:04:10;;;;;;;1.07;0.60;;;16.50;66.10;;;;;;5048625;28;20435;-93
2022/04/07 10:06:38;;;;;;;0.87;0.63;;;16.50;66.40;;;;;;5048719;28;20173;-91
2022/04/07 10:09:09;;;;;;;2.03;0.70;;;16.50;66.40;;;;;;5049396;28;20169;-92
2022/04/07 10:11:35;;;;;;;2.43;0.80;;;16.50;66.70;;;;;;5048944;28;20234;-92
2022/04/07 10:14:02;;;;;;;1.87;0.60;;;16.50;67.00;;;;;;5049036;28;20169;-92
2022/04/07 10:16:28;;;;;;;0.73;0.50;;;16.50;67.00;;;;;;5049890;28;20185;-92
2022/04/07 10:19:10;;;;;;;0.43;0.43;;;16.50;66.90;;;;;;5049801;28;20208;-92
2022/04/07 10:22:06;;;;;;;2.10;0.70;;;16.50;66.80;;;;;;5049973;28;20180;-93
2022/04/07 10:24:46;;;;;;;1.17;0.80;;;16.50;67.00;;;;;;5049904;28;20172;-93
2022/04/07 10:27:13;;;;;;;0.70;0.57;;;16.50;66.80;;;;;;5048601;28;20174;-93
2022/04/07 10:29:40;;;;;;;1.33;0.60;;;16.60;66.70;;;;;;5049074;28;20200;-92
2022/04/07 10:32:12;;;;;;;0.90;0.60;;;16.70;66.10;;;;;;5047936;28;20172;-92
2022/04/07 10:34:42;;;;;;;1.30;0.70;;;16.90;65.20;;;;;;5048091;28;20263;-91
2022/04/07 10:37:09;;;;;;;3.40;0.87;;;17.00;64.30;;;;;;5047114;28;20656;-92
2022/04/07 10:39:39;;;;;;;0.50;0.50;;;17.20;63.20;;;;;;5046039;28;20170;-91
2022/04/07 10:42:05;;;;;;;0.60;0.50;;;17.40;62.30;;;;;;5047829;28;20524;-92
2022/04/07 10:44:33;;;;;;;1.73;0.70;;;17.70;60.80;;;;;;5048233;28;20177;-92
2022/04/07 10:47:09;;;;;;;0.97;0.60;;;18.20;58.90;;;;;;5048530;28;20175;-92
2022/04/07 10:49:35;;;;;;;2.57;0.70;;;18.60;57.40;;;;;;5047480;28;20221;-92
2022/04/07 10:52:06;;;;;;;0.93;0.70;;;18.70;56.70;;;;;;5046630;28;20210;-93
2022/04/07 10:54:33;;;;;;;2.00;0.87;;;18.80;56.20;;;;;;5047412;28;20195;-92
2022/04/07 10:57:01;;;;;;;1.33;0.73;;;18.90;55.70;;;;;;5046396;28;20591;-92
2022/04/07 10:59:31;;;;;;;1.73;0.60;;;18.80;55.90;;;;;;5046667;28;20165;-92
2022/04/07 11:02:07;;;;;;;1.47;0.67;;;18.50;56.90;;;;;;5047809;28;20262;-92
2022/04/07 11:04:59;;;;;;;0.90;0.60;;;18.40;57.40;;;;;;5046098;28;20168;-93
2022/04/07 11:07:25;;;;;;;1.83;0.50;;;18.20;58.40;;;;;;5039859;28;20263;-93
2022/04/07 11:10:05;;;;;;;2.37;0.70;;;18.10;59.40;;;;;;5048731;28;20276;-93
2022/04/07 11:12:39;;;;;;;0.70;0.50;;;18.00;59.80;;;;;;5049308;28;20251;-94
2022/04/07 11:15:05;;;;;;;1.37;0.73;;;17.90;60.40;;;;;;5051327;28;20178;-93
2022/04/07 11:17:33;;;;;;;1.60;0.80;;;17.80;61.30;;;;;;5050319;28;20206;-92
2022/04/07 11:20:17;;;;;;;0.97;0.50;;;17.80;62.00;;;;;;5050165;28;20191;-93
2022/04/07 11:23:13;;;;;;;1.87;0.70;;;17.70;62.70;;;;;;5050495;28;20176;-93
2022/04/07 11:25:43;;;;;;;1.13;0.80;;;17.60;62.90;;;;;;5050208;28;20412;-93
2022/04/07 11:28:22;;;;;;;1.63;0.70;;;17.50;63.70;;;;;;5049719;28;20196;-93
2022/04/07 11:31:00;;;;;;;1.20;0.70;;;17.50;64.20;;;;;;5050171;28;20181;-93
2022/04/07 11:33:29;;;;;;;0.87;0.57;;;17.40;64.40;;;;;;5050148;28;20566;-93
2022/04/07 11:36:02;;;;;;;5.10;0.80;;;17.40;64.90;;;;;;5050151;28;20170;-94
2022/04/07 11:38:32;;;;;;;0.93;0.70;;;17.40;65.00;;;;;;5052750;28;20533;-93
2022/04/07 11:41:08;;;;;;;2.27;0.77;;;17.40;65.40;;;;;;5052459;28;20229;-93
2022/04/07 11:43:35;;;;;;;2.60;0.80;;;17.40;65.40;;;;;;5052883;28;20165;-93
2022/04/07 11:46:04;;;;;;;2.40;0.80;;;17.40;65.80;;;;;;5052859;28;20169;-94
2022/04/07 11:48:32;;;;;;;2.03;0.73;;;17.40;65.80;;;;;;5053689;28;20213;-94
2022/04/07 11:51:00;;;;;;;1.00;0.70;;;17.40;66.40;;;;;;5052058;28;20177;-93
2022/04/07 11:53:27;;;;;;;0.60;0.60;;;17.30;66.70;;;;;;5050918;28;20266;-94
2022/04/07 11:55:53;;;;;;;2.60;0.83;;;17.40;67.10;;;;;;5051443;28;20375;-94
2022/04/07 11:58:19;;;;;;;1.00;0.77;;;17.40;67.10;;;;;;5051558;28;20214;-94
2022/04/07 12:00:45;;;;;;;0.80;0.60;;;17.40;67.30;;;;;;5054334;28;20187;-94
2022/04/07 12:03:11;;;;;;;0.80;0.60;;;17.40;67.50;;;;;;5053465;28;20264;-94
2022/04/07 12:05:40;;;;;;;2.23;1.00;;;17.40;67.40;;;;;;5053524;28;20179;-93
2022/04/07 12:08:16;;;;;;;1.50;0.70;;;17.40;67.70;;;;;;5054095;28;20457;-93
2022/04/07 12:10:44;;;;;;;1.37;0.70;;;17.30;67.90;;;;;;5051139;28;20174;-92
2022/04/07 12:13:11;;;;;;;1.30;0.70;;;17.40;68.20;;;;;;5049660;28;20208;-93
2022/04/07 12:15:38;;;;;;;1.33;0.60;;;17.40;68.20;;;;;;5050848;28;20177;-93
2022/04/07 12:18:06;;;;;;;0.70;0.70;;;17.30;68.20;;;;;;5049904;28;20420;-93
2022/04/07 12:20:34;;;;;;;0.80;0.70;;;17.40;68.00;;;;;;5050199;28;20172;-92
2022/04/07 12:23:11;;;;;;;2.03;0.60;;;17.40;67.90;;;;;;5050791;28;20583;-92
2022/04/07 12:25:39;;;;;;;0.73;0.60;;;17.40;67.50;;;;;;5049957;28;20171;-94
2022/04/07 12:28:18;;;;;;;0.50;0.50;;;17.40;67.50;;;;;;5049865;28;20227;-94
2022/04/07 12:30:46;;;;;;;1.27;0.80;;;17.40;67.10;;;;;;5050382;28;20547;-92
2022/04/07 12:33:31;;;;;;;0.60;0.60;;;17.40;67.00;;;;;;5049545;28;20233;-92
2022/04/07 12:35:57;;;;;;;0.80;0.70;;;17.40;66.60;;;;;;5050813;28;20609;-92
2022/04/07 12:38:22;;;;;;;1.17;0.63;;;17.50;66.10;;;;;;5049442;28;20241;-93
2022/04/07 12:40:49;;;;;;;1.60;0.67;;;17.60;65.60;;;;;;5048674;28;20342;-92
2022/04/07 12:43:15;;;;;;;0.73;0.60;;;17.60;65.50;;;;;;5051076;28;20261;-93
2022/04/07 12:46:08;;;;;;;0.67;0.60;;;17.80;64.90;;;;;;5047424;28;20272;-93
2022/04/07 12:48:35;;;;;;;1.27;0.77;;;17.80;64.70;;;;;;5046433;28;20222;-92
2022/04/07 12:51:21;;;;;;;0.83;0.83;;;17.90;64.10;;;;;;5047856;28;20568;-93